This is the latest recevied weather packets stored in our database for station/object WP4PW. If no packets are shown the sender has not sent any weather packets the latest 10 day(s).
| Time | Temp. | Humidity | Pressure | Rain* | Wind** | Luminosity | Snow |
|---|---|---|---|---|---|---|---|
| 1777894947 | 28.33° C | 80% | 1021.1 hPa | 0 mm | - | 229 W/m² | - |
| 1777894644 | 28.33° C | 81% | 1021.1 hPa | 0 mm | - | 212 W/m² | - |
| 1777894341 | 28.33° C | 82% | 1021.1 hPa | 0 mm | - | 199 W/m² | - |
| 1777894038 | 27.78° C | 82% | 1020.8 hPa | 0 mm | - | 78 W/m² | - |
| 1777893734 | 28.33° C | 84% | 1021 hPa | 0 mm | - | 183 W/m² | - |
| 1777893431 | 27.78° C | 85% | 1021 hPa | 0 mm | - | 176 W/m² | - |
| 1777893128 | 27.78° C | 84% | 1021.1 hPa | 0 mm | - | 150 W/m² | - |
| 1777892824 | 28.33° C | 83% | 1021 hPa | 0 mm | - | 166 W/m² | - |
| 1777892520 | 27.78° C | 83% | 1021.1 hPa | 0 mm | - | 145 W/m² | - |
| 1777892216 | 27.78° C | 82% | 1021 hPa | 0 mm | - | 138 W/m² | - |
| 1777891913 | 27.22° C | 84% | 1021 hPa | 0 mm | - | 121 W/m² | - |
| 1777891611 | 27.22° C | 83% | 1020.8 hPa | 0 mm | - | 53 W/m² | - |
| 1777891307 | 27.22° C | 83% | 1020.7 hPa | 0 mm | - | 47 W/m² | - |
| 1777891007 | 27.22° C | 84% | 1020.6 hPa | 0 mm | - | 56 W/m² | - |
| 1777890702 | 27.22° C | 86% | 1020.5 hPa | 0 mm | - | 43 W/m² | - |
| 1777890398 | 26.67° C | 87% | 1020.6 hPa | 0 mm | - | 44 W/m² | - |
| 1777890093 | 26.67° C | 88% | 1020.4 hPa | 0 mm | - | 33 W/m² | - |
| 1777889792 | 26.67° C | 88% | 1020.3 hPa | 0 mm | - | 26 W/m² | - |
| 1777889489 | 26.67° C | 88% | 1020.4 hPa | 0 mm | - | 15 W/m² | - |
| 1777889186 | 26.67° C | 88% | 1020.3 hPa | 0 mm | - | 11 W/m² | - |
| 1777888885 | 26.67° C | 88% | 1020.4 hPa | 0 mm | - | 7 W/m² | - |
| 1777888581 | 26.67° C | 88% | 1020.3 hPa | 0 mm | - | 4 W/m² | - |
| 1777888276 | 26.67° C | 87% | 1020.4 hPa | 0 mm | - | 2 W/m² | - |
| 1777887974 | 26.67° C | 87% | 1020.1 hPa | 0 mm | - | 1 W/m² | - |
| 1777887671 | 26.67° C | 86% | 1020.2 hPa | 0 mm | - | 0 W/m² | - |
* Rain latest hour (hover to see other rain measurements)
** Current wind speed in m/s (hover to see current wind gust speed)